sensor_id;sensor_type;location;lat;lon;timestamp;P1;durP1;ratioP1;P2;durP2;ratioP2
33285;SDS011;19656;50.096;20.014;2023-06-10T00:45:28;12.80;;;10.10;;
33285;SDS011;19656;50.096;20.014;2023-06-10T00:55:37;14.00;;;10.10;;
33285;SDS011;19656;50.096;20.014;2023-06-10T01:00:41;12.70;;;10.60;;
33285;SDS011;19656;50.096;20.014;2023-06-10T01:05:45;12.30;;;10.50;;
33285;SDS011;19656;50.096;20.014;2023-06-10T01:10:59;15.60;;;10.90;;
33285;SDS011;19656;50.096;20.014;2023-06-10T01:16:04;16.90;;;10.90;;
33285;SDS011;19656;50.096;20.014;2023-06-10T01:21:08;13.20;;;10.20;;
33285;SDS011;19656;50.096;20.014;2023-06-10T01:26:14;11.90;;;10.40;;
33285;SDS011;19656;50.096;20.014;2023-06-10T01:36:47;13.10;;;11.20;;
33285;SDS011;19656;50.096;20.014;2023-06-10T01:41:53;13.90;;;11.30;;
33285;SDS011;19656;50.096;20.014;2023-06-10T01:47:00;15.40;;;11.90;;
33285;SDS011;19656;50.096;20.014;2023-06-10T01:52:04;14.50;;;10.70;;
33285;SDS011;19656;50.096;20.014;2023-06-10T01:57:08;17.00;;;10.40;;
33285;SDS011;19656;50.096;20.014;2023-06-10T02:02:12;16.60;;;10.90;;
33285;SDS011;19656;50.096;20.014;2023-06-10T02:07:16;13.40;;;11.00;;
33285;SDS011;19656;50.096;20.014;2023-06-10T02:12:19;13.70;;;11.10;;
33285;SDS011;19656;50.096;20.014;2023-06-10T02:17:22;17.30;;;11.20;;
33285;SDS011;19656;50.096;20.014;2023-06-10T02:22:26;12.40;;;10.30;;
33285;SDS011;19656;50.096;20.014;2023-06-10T02:27:29;12.60;;;10.00;;
33285;SDS011;19656;50.096;20.014;2023-06-10T02:32:33;12.60;;;9.60;;
33285;SDS011;19656;50.096;20.014;2023-06-10T02:37:38;11.60;;;10.20;;
33285;SDS011;19656;50.096;20.014;2023-06-10T02:42:41;12.30;;;10.50;;
33285;SDS011;19656;50.096;20.014;2023-06-10T02:47:48;16.90;;;10.00;;
33285;SDS011;19656;50.096;20.014;2023-06-10T02:52:52;13.10;;;8.70;;
33285;SDS011;19656;50.096;20.014;2023-06-10T02:57:56;12.60;;;9.20;;
33285;SDS011;19656;50.096;20.014;2023-06-10T03:03:00;13.20;;;9.70;;
33285;SDS011;19656;50.096;20.014;2023-06-10T03:08:09;13.90;;;9.70;;
33285;SDS011;19656;50.096;20.014;2023-06-10T03:13:14;16.40;;;9.80;;
33285;SDS011;19656;50.096;20.014;2023-06-10T03:18:19;13.10;;;9.50;;
33285;SDS011;19656;50.096;20.014;2023-06-10T03:23:28;12.00;;;9.60;;
33285;SDS011;19656;50.096;20.014;2023-06-10T03:28:32;12.50;;;9.70;;
33285;SDS011;19656;50.096;20.014;2023-06-10T03:33:35;12.70;;;9.50;;
33285;SDS011;19656;50.096;20.014;2023-06-10T03:38:39;13.00;;;9.90;;
33285;SDS011;19656;50.096;20.014;2023-06-10T03:43:43;13.30;;;9.80;;
33285;SDS011;19656;50.096;20.014;2023-06-10T03:53:52;18.30;;;9.90;;
33285;SDS011;19656;50.096;20.014;2023-06-10T03:58:57;10.60;;;8.90;;
33285;SDS011;19656;50.096;20.014;2023-06-10T04:04:00;14.20;;;8.30;;
33285;SDS011;19656;50.096;20.014;2023-06-10T04:09:09;12.60;;;8.80;;
33285;SDS011;19656;50.096;20.014;2023-06-10T04:14:12;10.80;;;8.00;;
33285;SDS011;19656;50.096;20.014;2023-06-10T04:24:22;12.40;;;8.40;;
33285;SDS011;19656;50.096;20.014;2023-06-10T04:29:25;14.20;;;7.70;;
33285;SDS011;19656;50.096;20.014;2023-06-10T04:50:42;9.80;;;6.60;;
33285;SDS011;19656;50.096;20.014;2023-06-10T04:55:46;8.70;;;5.80;;
33285;SDS011;19656;50.096;20.014;2023-06-10T05:00:49;11.70;;;6.10;;
33285;SDS011;19656;50.096;20.014;2023-06-10T05:05:52;7.90;;;5.60;;
33285;SDS011;19656;50.096;20.014;2023-06-10T05:10:57;9.10;;;5.40;;
33285;SDS011;19656;50.096;20.014;2023-06-10T05:16:01;10.90;;;5.60;;
33285;SDS011;19656;50.096;20.014;2023-06-10T05:21:05;10.20;;;5.40;;
33285;SDS011;19656;50.096;20.014;2023-06-10T05:26:09;9.00;;;5.30;;
33285;SDS011;19656;50.096;20.014;2023-06-10T05:31:12;7.40;;;5.20;;
33285;SDS011;19656;50.096;20.014;2023-06-10T05:36:15;13.30;;;5.80;;
33285;SDS011;19656;50.096;20.014;2023-06-10T05:41:19;11.60;;;5.30;;
33285;SDS011;19656;50.096;20.014;2023-06-10T05:46:23;6.40;;;4.90;;
33285;SDS011;19656;50.096;20.014;2023-06-10T05:51:27;7.50;;;5.00;;
33285;SDS011;19656;50.096;20.014;2023-06-10T05:56:31;7.30;;;4.70;;
33285;SDS011;19656;50.096;20.014;2023-06-10T06:01:34;7.20;;;5.50;;
33285;SDS011;19656;50.096;20.014;2023-06-10T06:06:38;12.30;;;5.00;;
33285;SDS011;19656;50.096;20.014;2023-06-10T06:16:46;9.00;;;5.20;;
33285;SDS011;19656;50.096;20.014;2023-06-10T06:21:49;8.00;;;5.50;;
33285;SDS011;19656;50.096;20.014;2023-06-10T06:26:52;9.50;;;5.50;;
33285;SDS011;19656;50.096;20.014;2023-06-10T06:31:56;6.60;;;5.30;;
33285;SDS011;19656;50.096;20.014;2023-06-10T06:36:59;7.70;;;5.00;;
33285;SDS011;19656;50.096;20.014;2023-06-10T06:42:05;9.00;;;4.30;;
33285;SDS011;19656;50.096;20.014;2023-06-10T06:47:24;6.80;;;5.70;;
33285;SDS011;19656;50.096;20.014;2023-06-10T06:52:29;7.60;;;5.10;;
33285;SDS011;19656;50.096;20.014;2023-06-10T06:57:32;9.70;;;5.50;;
33285;SDS011;19656;50.096;20.014;2023-06-10T07:02:36;8.50;;;5.40;;
33285;SDS011;19656;50.096;20.014;2023-06-10T07:07:39;8.90;;;5.30;;
33285;SDS011;19656;50.096;20.014;2023-06-10T07:12:43;7.60;;;5.00;;
33285;SDS011;19656;50.096;20.014;2023-06-10T07:17:46;7.40;;;4.70;;
33285;SDS011;19656;50.096;20.014;2023-06-10T07:22:49;7.40;;;5.20;;
33285;SDS011;19656;50.096;20.014;2023-06-10T07:27:52;7.20;;;5.20;;
33285;SDS011;19656;50.096;20.014;2023-06-10T07:32:55;12.20;;;5.00;;
33285;SDS011;19656;50.096;20.014;2023-06-10T07:37:59;8.20;;;4.90;;
33285;SDS011;19656;50.096;20.014;2023-06-10T07:43:02;7.20;;;5.40;;
33285;SDS011;19656;50.096;20.014;2023-06-10T07:48:09;6.60;;;4.60;;
33285;SDS011;19656;50.096;20.014;2023-06-10T07:53:13;7.70;;;4.70;;
33285;SDS011;19656;50.096;20.014;2023-06-10T07:58:16;9.70;;;4.90;;
33285;SDS011;19656;50.096;20.014;2023-06-10T08:03:20;5.70;;;4.50;;
33285;SDS011;19656;50.096;20.014;2023-06-10T08:08:23;7.90;;;4.70;;
33285;SDS011;19656;50.096;20.014;2023-06-10T08:13:26;8.70;;;4.60;;
33285;SDS011;19656;50.096;20.014;2023-06-10T08:18:30;7.00;;;4.70;;
33285;SDS011;19656;50.096;20.014;2023-06-10T08:23:33;4.70;;;4.20;;
33285;SDS011;19656;50.096;20.014;2023-06-10T08:28:37;6.50;;;4.70;;
33285;SDS011;19656;50.096;20.014;2023-06-10T08:33:41;6.50;;;4.90;;
33285;SDS011;19656;50.096;20.014;2023-06-10T08:38:45;9.20;;;4.40;;
33285;SDS011;19656;50.096;20.014;2023-06-10T08:43:52;5.30;;;4.50;;
33285;SDS011;19656;50.096;20.014;2023-06-10T08:49:02;5.70;;;5.10;;
33285;SDS011;19656;50.096;20.014;2023-06-10T08:54:21;7.60;;;5.10;;
33285;SDS011;19656;50.096;20.014;2023-06-10T08:59:28;5.90;;;4.50;;
33285;SDS011;19656;50.096;20.014;2023-06-10T09:04:31;5.10;;;4.60;;
33285;SDS011;19656;50.096;20.014;2023-06-10T09:09:35;5.60;;;4.40;;
33285;SDS011;19656;50.096;20.014;2023-06-10T09:14:39;7.20;;;4.60;;
33285;SDS011;19656;50.096;20.014;2023-06-10T09:19:42;4.80;;;4.30;;
33285;SDS011;19656;50.096;20.014;2023-06-10T09:24:47;5.30;;;4.20;;
33285;SDS011;19656;50.096;20.014;2023-06-10T09:29:52;5.80;;;4.40;;
33285;SDS011;19656;50.096;20.014;2023-06-10T09:34:57;5.20;;;4.60;;
33285;SDS011;19656;50.096;20.014;2023-06-10T09:40:04;9.20;;;4.60;;
33285;SDS011;19656;50.096;20.014;2023-06-10T09:45:09;6.40;;;4.70;;
33285;SDS011;19656;50.096;20.014;2023-06-10T09:50:12;5.90;;;4.40;;
33285;SDS011;19656;50.096;20.014;2023-06-10T09:55:16;5.00;;;3.90;;
33285;SDS011;19656;50.096;20.014;2023-06-10T10:00:21;5.70;;;4.40;;
33285;SDS011;19656;50.096;20.014;2023-06-10T10:05:26;5.80;;;4.20;;
33285;SDS011;19656;50.096;20.014;2023-06-10T10:10:32;4.50;;;3.80;;
33285;SDS011;19656;50.096;20.014;2023-06-10T10:15:36;6.60;;;4.00;;
33285;SDS011;19656;50.096;20.014;2023-06-10T10:20:45;4.50;;;3.60;;
33285;SDS011;19656;50.096;20.014;2023-06-10T10:25:51;10.60;;;3.80;;
33285;SDS011;19656;50.096;20.014;2023-06-10T10:30:59;6.20;;;3.80;;
33285;SDS011;19656;50.096;20.014;2023-06-10T10:36:12;5.70;;;3.60;;
33285;SDS011;19656;50.096;20.014;2023-06-10T10:41:16;8.10;;;3.90;;
33285;SDS011;19656;50.096;20.014;2023-06-10T10:46:22;6.20;;;3.90;;
33285;SDS011;19656;50.096;20.014;2023-06-10T10:51:25;4.30;;;3.60;;
33285;SDS011;19656;50.096;20.014;2023-06-10T10:56:29;4.60;;;3.50;;
33285;SDS011;19656;50.096;20.014;2023-06-10T11:01:42;6.30;;;3.80;;
33285;SDS011;19656;50.096;20.014;2023-06-10T11:06:52;6.60;;;3.70;;
33285;SDS011;19656;50.096;20.014;2023-06-10T11:11:57;6.80;;;3.30;;
33285;SDS011;19656;50.096;20.014;2023-06-10T11:17:04;5.00;;;3.20;;
33285;SDS011;19656;50.096;20.014;2023-06-10T11:22:23;6.90;;;3.30;;
33285;SDS011;19656;50.096;20.014;2023-06-10T11:27:26;6.20;;;4.20;;
33285;SDS011;19656;50.096;20.014;2023-06-10T11:32:41;4.70;;;3.60;;
33285;SDS011;19656;50.096;20.014;2023-06-10T11:37:46;6.50;;;3.60;;
33285;SDS011;19656;50.096;20.014;2023-06-10T11:42:50;7.60;;;3.90;;
33285;SDS011;19656;50.096;20.014;2023-06-10T11:50:53;6.30;;;3.70;;
33285;SDS011;19656;50.096;20.014;2023-06-10T11:55:57;6.50;;;3.20;;
33285;SDS011;19656;50.096;20.014;2023-06-10T12:01:00;4.50;;;3.20;;
33285;SDS011;19656;50.096;20.014;2023-06-10T12:06:05;9.10;;;2.90;;
33285;SDS011;19656;50.096;20.014;2023-06-10T12:11:09;5.80;;;3.20;;
33285;SDS011;19656;50.096;20.014;2023-06-10T12:16:13;4.40;;;2.90;;
33285;SDS011;19656;50.096;20.014;2023-06-10T12:26:32;4.60;;;2.80;;
33285;SDS011;19656;50.096;20.014;2023-06-10T12:31:54;5.00;;;2.70;;
33285;SDS011;19656;50.096;20.014;2023-06-10T12:37:11;3.90;;;2.40;;
33285;SDS011;19656;50.096;20.014;2023-06-10T12:42:18;5.50;;;2.70;;
33285;SDS011;19656;50.096;20.014;2023-06-10T12:47:31;5.00;;;2.60;;
33285;SDS011;19656;50.096;20.014;2023-06-10T12:52:38;7.10;;;2.70;;
33285;SDS011;19656;50.096;20.014;2023-06-10T12:57:47;5.60;;;2.60;;
33285;SDS011;19656;50.096;20.014;2023-06-10T13:02:52;4.40;;;2.10;;
33285;SDS011;19656;50.096;20.014;2023-06-10T13:08:25;5.90;;;2.90;;
33285;SDS011;19656;50.096;20.014;2023-06-10T13:13:30;5.70;;;2.60;;
33285;SDS011;19656;50.096;20.014;2023-06-10T13:18:34;3.50;;;2.80;;
33285;SDS011;19656;50.096;20.014;2023-06-10T13:23:40;4.20;;;2.50;;
33285;SDS011;19656;50.096;20.014;2023-06-10T13:28:43;3.20;;;2.50;;
33285;SDS011;19656;50.096;20.014;2023-06-10T13:33:47;4.70;;;2.80;;
33285;SDS011;19656;50.096;20.014;2023-06-10T13:38:50;3.60;;;2.30;;
33285;SDS011;19656;50.096;20.014;2023-06-10T13:43:54;10.60;;;2.60;;
33285;SDS011;19656;50.096;20.014;2023-06-10T13:48:58;2.70;;;1.90;;
33285;SDS011;19656;50.096;20.014;2023-06-10T13:54:01;4.70;;;2.60;;
33285;SDS011;19656;50.096;20.014;2023-06-10T13:59:04;3.50;;;2.10;;
33285;SDS011;19656;50.096;20.014;2023-06-10T14:04:08;4.20;;;1.90;;
33285;SDS011;19656;50.096;20.014;2023-06-10T14:09:14;2.50;;;1.90;;
33285;SDS011;19656;50.096;20.014;2023-06-10T14:14:19;7.00;;;2.30;;
33285;SDS011;19656;50.096;20.014;2023-06-10T14:19:22;4.40;;;2.30;;
33285;SDS011;19656;50.096;20.014;2023-06-10T14:24:29;3.50;;;2.00;;
33285;SDS011;19656;50.096;20.014;2023-06-10T14:29:33;4.00;;;2.10;;
33285;SDS011;19656;50.096;20.014;2023-06-10T14:34:36;3.30;;;1.90;;
33285;SDS011;19656;50.096;20.014;2023-06-10T14:39:41;2.60;;;2.10;;
33285;SDS011;19656;50.096;20.014;2023-06-10T14:44:45;3.90;;;2.10;;
33285;SDS011;19656;50.096;20.014;2023-06-10T14:50:43;2.60;;;2.30;;
33285;SDS011;19656;50.096;20.014;2023-06-10T14:55:49;3.20;;;2.40;;
33285;SDS011;19656;50.096;20.014;2023-06-10T15:00:52;6.00;;;2.50;;
33285;SDS011;19656;50.096;20.014;2023-06-10T15:05:56;3.70;;;2.20;;
33285;SDS011;19656;50.096;20.014;2023-06-10T15:10:59;4.40;;;2.00;;
33285;SDS011;19656;50.096;20.014;2023-06-10T15:16:05;2.70;;;1.80;;
33285;SDS011;19656;50.096;20.014;2023-06-10T15:21:09;3.80;;;2.30;;
33285;SDS011;19656;50.096;20.014;2023-06-10T15:26:12;5.50;;;2.00;;
33285;SDS011;19656;50.096;20.014;2023-06-10T15:31:15;3.30;;;2.20;;
33285;SDS011;19656;50.096;20.014;2023-06-10T15:36:18;2.80;;;2.10;;
33285;SDS011;19656;50.096;20.014;2023-06-10T15:41:22;3.50;;;2.40;;
33285;SDS011;19656;50.096;20.014;2023-06-10T15:46:26;6.30;;;2.50;;
33285;SDS011;19656;50.096;20.014;2023-06-10T15:52:27;5.40;;;2.10;;
33285;SDS011;19656;50.096;20.014;2023-06-10T15:57:30;6.40;;;2.00;;
33285;SDS011;19656;50.096;20.014;2023-06-10T16:02:34;8.30;;;2.20;;
33285;SDS011;19656;50.096;20.014;2023-06-10T16:12:45;6.10;;;2.90;;
33285;SDS011;19656;50.096;20.014;2023-06-10T16:17:51;5.40;;;2.80;;
33285;SDS011;19656;50.096;20.014;2023-06-10T16:22:54;6.00;;;2.40;;
33285;SDS011;19656;50.096;20.014;2023-06-10T16:27:57;5.90;;;2.70;;
33285;SDS011;19656;50.096;20.014;2023-06-10T16:33:01;4.20;;;2.80;;
33285;SDS011;19656;50.096;20.014;2023-06-10T16:38:07;10.70;;;3.10;;
33285;SDS011;19656;50.096;20.014;2023-06-10T16:43:10;4.60;;;2.80;;
33285;SDS011;19656;50.096;20.014;2023-06-10T16:48:14;3.20;;;2.60;;
33285;SDS011;19656;50.096;20.014;2023-06-10T16:53:17;4.50;;;2.70;;
33285;SDS011;19656;50.096;20.014;2023-06-10T16:58:21;5.70;;;2.70;;
33285;SDS011;19656;50.096;20.014;2023-06-10T17:03:24;4.80;;;2.70;;
33285;SDS011;19656;50.096;20.014;2023-06-10T17:08:28;4.10;;;2.40;;
33285;SDS011;19656;50.096;20.014;2023-06-10T17:13:31;6.00;;;3.10;;
33285;SDS011;19656;50.096;20.014;2023-06-10T17:18:35;7.00;;;2.60;;
33285;SDS011;19656;50.096;20.014;2023-06-10T17:23:38;5.20;;;2.90;;
33285;SDS011;19656;50.096;20.014;2023-06-10T17:28:41;5.10;;;2.10;;
33285;SDS011;19656;50.096;20.014;2023-06-10T17:33:45;4.60;;;2.60;;
33285;SDS011;19656;50.096;20.014;2023-06-10T17:38:48;7.30;;;2.80;;
33285;SDS011;19656;50.096;20.014;2023-06-10T17:43:51;6.30;;;2.70;;
33285;SDS011;19656;50.096;20.014;2023-06-10T17:48:55;5.50;;;3.10;;
33285;SDS011;19656;50.096;20.014;2023-06-10T17:53:58;8.00;;;3.40;;
33285;SDS011;19656;50.096;20.014;2023-06-10T17:59:11;7.10;;;3.00;;
33285;SDS011;19656;50.096;20.014;2023-06-10T18:04:15;9.80;;;3.40;;
33285;SDS011;19656;50.096;20.014;2023-06-10T18:09:18;6.00;;;3.30;;
33285;SDS011;19656;50.096;20.014;2023-06-10T18:14:31;6.10;;;3.40;;
33285;SDS011;19656;50.096;20.014;2023-06-10T18:19:34;4.20;;;2.80;;
33285;SDS011;19656;50.096;20.014;2023-06-10T18:24:37;6.00;;;3.70;;
33285;SDS011;19656;50.096;20.014;2023-06-10T18:29:40;5.90;;;3.70;;
33285;SDS011;19656;50.096;20.014;2023-06-10T18:34:44;9.10;;;4.10;;
33285;SDS011;19656;50.096;20.014;2023-06-10T18:39:49;8.40;;;3.90;;
33285;SDS011;19656;50.096;20.014;2023-06-10T18:44:52;7.30;;;3.90;;
33285;SDS011;19656;50.096;20.014;2023-06-10T18:49:55;6.10;;;4.00;;
33285;SDS011;19656;50.096;20.014;2023-06-10T18:54:59;7.20;;;3.90;;
33285;SDS011;19656;50.096;20.014;2023-06-10T19:00:02;4.70;;;3.40;;
33285;SDS011;19656;50.096;20.014;2023-06-10T19:05:07;6.60;;;3.20;;
33285;SDS011;19656;50.096;20.014;2023-06-10T19:10:12;4.90;;;3.60;;
33285;SDS011;19656;50.096;20.014;2023-06-10T19:15:16;7.80;;;3.90;;
33285;SDS011;19656;50.096;20.014;2023-06-10T19:20:28;5.60;;;3.70;;
33285;SDS011;19656;50.096;20.014;2023-06-10T19:25:32;7.80;;;3.30;;
33285;SDS011;19656;50.096;20.014;2023-06-10T19:30:35;5.30;;;3.50;;
33285;SDS011;19656;50.096;20.014;2023-06-10T19:35:38;6.40;;;4.00;;
33285;SDS011;19656;50.096;20.014;2023-06-10T19:45:47;5.10;;;3.60;;
33285;SDS011;19656;50.096;20.014;2023-06-10T19:50:50;5.20;;;3.70;;
33285;SDS011;19656;50.096;20.014;2023-06-10T19:55:53;7.30;;;4.30;;
33285;SDS011;19656;50.096;20.014;2023-06-10T20:00:57;7.50;;;4.20;;
33285;SDS011;19656;50.096;20.014;2023-06-10T20:06:01;7.00;;;4.40;;
33285;SDS011;19656;50.096;20.014;2023-06-10T20:11:05;7.40;;;4.70;;
33285;SDS011;19656;50.096;20.014;2023-06-10T20:16:09;7.40;;;4.90;;
33285;SDS011;19656;50.096;20.014;2023-06-10T20:21:13;6.80;;;4.40;;
33285;SDS011;19656;50.096;20.014;2023-06-10T20:26:21;7.30;;;4.30;;
33285;SDS011;19656;50.096;20.014;2023-06-10T20:31:26;5.50;;;4.40;;
33285;SDS011;19656;50.096;20.014;2023-06-10T20:36:30;6.50;;;4.70;;
33285;SDS011;19656;50.096;20.014;2023-06-10T20:41:34;7.30;;;4.60;;
33285;SDS011;19656;50.096;20.014;2023-06-10T20:50:42;10.40;;;5.60;;
33285;SDS011;19656;50.096;20.014;2023-06-10T20:55:46;5.20;;;4.70;;
33285;SDS011;19656;50.096;20.014;2023-06-10T21:00:49;6.50;;;5.10;;
33285;SDS011;19656;50.096;20.014;2023-06-10T21:05:52;5.80;;;4.70;;
33285;SDS011;19656;50.096;20.014;2023-06-10T21:10:56;7.20;;;5.60;;
33285;SDS011;19656;50.096;20.014;2023-06-10T21:15:59;10.20;;;5.20;;
33285;SDS011;19656;50.096;20.014;2023-06-10T21:21:03;6.00;;;5.00;;
33285;SDS011;19656;50.096;20.014;2023-06-10T21:26:07;6.00;;;4.70;;
33285;SDS011;19656;50.096;20.014;2023-06-10T21:31:15;9.30;;;5.20;;
33285;SDS011;19656;50.096;20.014;2023-06-10T21:36:36;6.80;;;5.20;;
33285;SDS011;19656;50.096;20.014;2023-06-10T21:41:39;5.90;;;4.30;;
33285;SDS011;19656;50.096;20.014;2023-06-10T21:46:43;6.80;;;4.70;;
33285;SDS011;19656;50.096;20.014;2023-06-10T21:51:46;5.00;;;4.50;;
33285;SDS011;19656;50.096;20.014;2023-06-10T21:56:50;5.10;;;4.30;;
33285;SDS011;19656;50.096;20.014;2023-06-10T22:01:53;4.90;;;4.40;;
33285;SDS011;19656;50.096;20.014;2023-06-10T22:06:56;5.20;;;4.40;;
33285;SDS011;19656;50.096;20.014;2023-06-10T22:12:00;6.10;;;4.40;;
33285;SDS011;19656;50.096;20.014;2023-06-10T22:17:03;4.90;;;4.40;;
33285;SDS011;19656;50.096;20.014;2023-06-10T22:22:07;5.50;;;4.40;;
33285;SDS011;19656;50.096;20.014;2023-06-10T22:27:12;4.60;;;4.00;;
33285;SDS011;19656;50.096;20.014;2023-06-10T22:32:15;5.60;;;4.30;;
33285;SDS011;19656;50.096;20.014;2023-06-10T22:37:19;5.60;;;4.60;;
33285;SDS011;19656;50.096;20.014;2023-06-10T22:42:23;7.80;;;5.30;;
33285;SDS011;19656;50.096;20.014;2023-06-10T22:47:26;6.60;;;5.60;;
33285;SDS011;19656;50.096;20.014;2023-06-10T22:52:30;6.30;;;4.90;;
33285;SDS011;19656;50.096;20.014;2023-06-10T22:57:33;6.30;;;5.00;;
33285;SDS011;19656;50.096;20.014;2023-06-10T23:02:46;8.30;;;5.50;;
33285;SDS011;19656;50.096;20.014;2023-06-10T23:07:49;7.30;;;5.20;;
33285;SDS011;19656;50.096;20.014;2023-06-10T23:12:52;7.30;;;5.00;;
33285;SDS011;19656;50.096;20.014;2023-06-10T23:17:56;9.00;;;5.10;;
33285;SDS011;19656;50.096;20.014;2023-06-10T23:23:00;6.40;;;5.20;;
33285;SDS011;19656;50.096;20.014;2023-06-10T23:28:04;7.40;;;5.70;;
33285;SDS011;19656;50.096;20.014;2023-06-10T23:33:07;6.60;;;5.10;;
33285;SDS011;19656;50.096;20.014;2023-06-10T23:38:11;6.90;;;5.40;;
33285;SDS011;19656;50.096;20.014;2023-06-10T23:43:14;6.30;;;5.30;;
33285;SDS011;19656;50.096;20.014;2023-06-10T23:48:17;8.10;;;5.80;;
33285;SDS011;19656;50.096;20.014;2023-06-10T23:53:21;7.10;;;6.00;;
33285;SDS011;19656;50.096;20.014;2023-06-10T23:58:24;7.30;;;5.90;;
